Time;durP1;ratioP1;P1;durP2;ratioP2;P2;SDS_P1;SDS_P2;PMS_P1;PMS_P2;Temp;Humidity;BMP_temperature;BMP_pressure;BME280_temperature;BME280_humidity;BME280_pressure;Samples;Min_cycle;Max_cycle;Signal;HPM_P1;HPM_P2
2021/12/20 00:01:57;;;;;;;7.13;1.87;;;;;;;4.86;64.46;102327.84;4948506;28;96884;-86
2021/12/20 00:04:23;;;;;;;13.03;2.10;;;;;;;4.86;64.40;102346.94;4967365;28;97095;-86
2021/12/20 00:06:48;;;;;;;4.30;1.83;;;;;;;4.81;64.14;102325.56;4962017;28;97664;-86
2021/12/20 00:09:14;;;;;;;6.37;1.87;;;;;;;4.75;64.36;102338.91;4945618;28;96907;-86
2021/12/20 00:11:40;;;;;;;9.53;2.30;;;;;;;4.71;64.25;102340.91;4945119;28;96759;-87
2021/12/20 00:14:05;;;;;;;13.60;2.80;;;;;;;4.68;64.45;102324.59;4947615;28;96990;-87
2021/12/20 00:16:31;;;;;;;13.33;2.27;;;;;;;4.64;64.17;102323.88;4945301;28;98500;-86
2021/12/20 00:18:56;;;;;;;4.90;2.00;;;;;;;4.59;64.41;102346.16;4945386;28;97201;-87
2021/12/20 00:21:22;;;;;;;6.50;2.20;;;;;;;4.57;64.61;102328.25;4938865;28;97054;-86
2021/12/20 00:23:47;;;;;;;12.07;2.90;;;;;;;4.57;64.38;102336.41;4942330;28;97332;-86
2021/12/20 00:26:13;;;;;;;11.70;2.30;;;;;;;4.48;64.27;102332.66;4943274;28;97281;-86
2021/12/20 00:28:38;;;;;;;9.43;3.07;;;;;;;4.45;64.42;102331.53;4946155;28;97182;-86
2021/12/20 00:31:04;;;;;;;12.80;3.23;;;;;;;4.42;64.52;102337.00;4949114;28;96953;-86
2021/12/20 00:33:33;;;;;;;18.17;3.03;;;;;;;4.43;64.71;102328.41;4950483;28;96666;-86
2021/12/20 00:36:06;;;;;;;10.10;2.43;;;;;;;4.41;64.62;102328.06;4962151;28;98052;-86
2021/12/20 00:41:16;;;;;;;11.53;2.73;;;;;;;4.28;64.49;102337.94;4944558;28;97197;-85
2021/12/20 00:43:41;;;;;;;10.00;2.90;;;;;;;4.24;64.47;102334.50;4946300;28;96960;-85
2021/12/20 00:46:07;;;;;;;8.77;2.47;;;;;;;4.27;64.77;102339.13;4942347;28;97137;-86
2021/12/20 00:48:32;;;;;;;7.70;2.60;;;;;;;4.28;64.47;102339.94;4945682;28;97490;-85
2021/12/20 00:50:58;;;;;;;13.70;2.07;;;;;;;4.28;64.73;102337.19;4944186;28;97115;-86
2021/12/20 00:53:23;;;;;;;15.03;2.60;;;;;;;4.29;64.81;102341.44;4943361;28;97000;-86
2021/12/20 00:55:49;;;;;;;8.57;2.27;;;;;;;4.26;64.64;102345.75;4960670;28;97851;-86
2021/12/20 00:58:14;;;;;;;8.07;2.40;;;;;;;4.27;64.79;102385.44;4944433;28;97710;-85
2021/12/20 01:00:43;;;;;;;9.30;3.43;;;;;;;4.25;64.54;102336.06;4944080;28;97092;-85
2021/12/20 01:03:10;;;;;;;9.67;2.87;;;;;;;4.30;64.52;102337.56;4945305;28;97218;-85
2021/12/20 01:05:38;;;;;;;15.10;3.20;;;;;;;4.27;64.70;102336.41;4960232;28;98360;-85
2021/12/20 01:08:05;;;;;;;11.00;2.20;;;;;;;4.28;64.45;102334.47;4958841;28;97158;-85
2021/12/20 01:10:32;;;;;;;10.57;3.20;;;;;;;4.28;64.41;102346.13;4943373;28;97254;-85
2021/12/20 01:13:00;;;;;;;8.57;2.60;;;;;;;4.29;64.66;102341.44;4944872;28;96923;-86
2021/12/20 01:15:32;;;;;;;9.27;2.47;;;;;;;4.27;64.63;102357.44;4938181;28;99105;-85
2021/12/20 01:17:57;;;;;;;8.20;2.10;;;;;;;4.24;64.36;102367.19;4936568;28;99355;-86
2021/12/20 01:20:23;;;;;;;7.27;2.00;;;;;;;4.21;64.67;102337.28;4940709;28;96996;-86
2021/12/20 01:22:51;;;;;;;11.13;2.70;;;;;;;4.22;64.45;102341.53;4955530;28;97427;-86
2021/12/20 01:25:18;;;;;;;7.20;2.00;;;;;;;4.20;64.38;102344.66;4937070;28;97282;-85
2021/12/20 01:27:44;;;;;;;7.07;1.83;;;;;;;4.19;64.50;102347.81;4937500;28;96908;-86
2021/12/20 01:30:12;;;;;;;6.77;2.40;;;;;;;4.15;64.66;102353.28;4938394;28;96969;-85
2021/12/20 01:32:38;;;;;;;7.30;1.80;;;;;;;4.14;64.50;102362.63;4943479;28;97080;-85
2021/12/20 01:35:04;;;;;;;4.00;1.97;;;;;;;4.11;64.56;102368.88;4935376;28;97370;-85
2021/12/20 01:37:30;;;;;;;4.40;1.53;;;;;;;4.09;64.32;102362.28;4940805;28;97940;-85
2021/12/20 01:39:58;;;;;;;2.07;1.10;;;;;;;4.09;64.56;102367.75;4954849;28;97190;-85
2021/12/20 01:42:25;;;;;;;3.53;1.17;;;;;;;4.07;64.47;102368.16;4955336;28;96964;-86
2021/12/20 01:44:55;;;;;;;4.80;1.40;;;;;;;4.03;64.67;102372.88;4940535;28;96769;-85
2021/12/20 01:47:21;;;;;;;6.00;1.60;;;;;;;4.01;64.72;102369.78;4940410;28;99786;-85
2021/12/20 01:49:59;;;;;;;5.83;1.80;;;;;;;3.98;64.41;102359.69;4938473;28;96725;-85
2021/12/20 01:52:28;;;;;;;5.90;1.60;;;;;;;3.96;64.61;102380.34;4955585;28;97450;-85
2021/12/20 01:54:53;;;;;;;10.40;1.70;;;;;;;3.93;64.37;102364.81;4938721;28;98781;-85
2021/12/20 01:57:21;;;;;;;7.20;1.53;;;;;;;3.91;64.39;102365.19;4943193;28;99726;-86
2021/12/20 01:59:47;;;;;;;9.03;2.20;;;;;;;3.87;64.55;102369.91;4961015;28;97276;-85
2021/12/20 02:02:12;;;;;;;6.57;1.60;;;;;;;3.86;64.39;102349.31;4943266;28;97077;-85
2021/12/20 02:04:45;;;;;;;4.87;1.27;;;;;;;3.85;64.41;102357.88;4947192;28;97548;-86
2021/12/20 02:07:32;;;;;;;14.13;1.73;;;;;;;3.84;64.49;102364.50;4940639;28;98121;-86
2021/12/20 02:09:57;;;;;;;4.07;1.47;;;;;;;3.77;64.75;102366.13;4944138;28;97201;-85
2021/12/20 02:12:23;;;;;;;5.50;1.43;;;;;;;3.76;64.61;102399.19;4943157;28;97303;-85
2021/12/20 02:14:48;;;;;;;3.53;1.20;;;;;;;3.76;64.49;102389.06;4940718;28;96816;-86
2021/12/20 02:17:14;;;;;;;2.73;0.83;;;;;;;3.74;64.54;102374.31;4943979;28;98481;-85
2021/12/20 02:19:39;;;;;;;1.60;1.23;;;;;;;3.72;64.72;102368.50;4942398;28;96662;-85
2021/12/20 02:22:05;;;;;;;3.10;1.20;;;;;;;3.71;64.46;102372.41;4945936;28;96918;-86
2021/12/20 02:24:31;;;;;;;3.13;1.10;;;;;;;3.71;64.47;102375.13;4940956;28;99864;-85
2021/12/20 02:26:56;;;;;;;1.77;1.10;;;;;;;3.68;64.48;102386.81;4941188;28;97886;-86
2021/12/20 02:29:38;;;;;;;1.90;0.77;;;;;;;3.60;64.43;102377.19;4938483;28;97040;-85
2021/12/20 02:37:32;;;;;;;2.57;1.00;;;;;;;3.61;64.26;102370.53;4940449;28;97293;-87
2021/12/20 02:39:57;;;;;;;2.10;1.20;;;;;;;3.57;64.51;102375.25;4940247;28;96919;-87
2021/12/20 02:42:28;;;;;;;3.50;1.20;;;;;;;3.57;64.57;102367.09;4940444;28;97178;-87
2021/12/20 02:45:09;;;;;;;2.60;0.70;;;;;;;3.56;64.51;102368.28;4939198;28;97823;-87
2021/12/20 02:47:43;;;;;;;1.27;0.90;;;;;;;3.53;64.40;102399.00;4959882;28;96903;-87
2021/12/20 02:50:10;;;;;;;1.10;1.00;;;;;;;3.51;64.44;102387.75;4941398;28;97412;-87
2021/12/20 02:52:35;;;;;;;2.37;1.00;;;;;;;3.50;64.50;102384.25;4946404;28;96866;-88
2021/12/20 02:55:01;;;;;;;5.30;1.20;;;;;;;3.49;64.50;102362.88;4944143;28;98761;-87
2021/12/20 02:57:26;;;;;;;4.30;1.20;;;;;;;3.41;64.51;102347.78;4942487;28;100594;-87
2021/12/20 02:59:52;;;;;;;9.40;1.53;;;;;;;3.43;64.60;102340.75;4942684;28;96651;-87
2021/12/20 03:02:18;;;;;;;4.97;1.20;;;;;;;3.43;64.71;102351.66;4941488;28;97155;-87
2021/12/20 03:04:44;;;;;;;11.80;1.77;;;;;;;3.39;64.46;102405.31;4957302;28;100114;-87
2021/12/20 03:07:20;;;;;;;4.20;1.80;;;;;;;3.39;64.51;102361.78;4943131;28;97604;-87
2021/12/20 03:09:51;;;;;;;5.67;1.20;;;;;;;3.35;64.45;102360.28;4941009;28;99053;-87
2021/12/20 03:12:16;;;;;;;7.87;1.63;;;;;;;3.37;64.56;102372.31;4941041;28;96968;-86
2021/12/20 03:14:45;;;;;;;2.97;1.20;;;;;;;3.38;64.55;102371.16;4942772;28;101825;-87
2021/12/20 03:17:11;;;;;;;3.77;1.73;;;;;;;3.38;64.66;102362.19;4942687;28;98839;-86
2021/12/20 03:19:37;;;;;;;7.30;1.40;;;;;;;3.33;64.51;102368.84;4942706;28;97542;-87
2021/12/20 03:22:04;;;;;;;0.90;0.70;;;;;;;3.32;64.65;102361.84;4942157;28;97474;-86
2021/12/20 03:24:30;;;;;;;2.70;1.00;;;;;;;3.27;64.56;102372.38;4952590;28;97769;-86
2021/12/20 03:26:55;;;;;;;1.63;0.80;;;;;;;3.30;64.60;102358.00;4941172;28;97562;-86
2021/12/20 03:29:21;;;;;;;1.07;0.80;;;;;;;3.25;64.64;102380.16;4947592;28;97180;-86
2021/12/20 03:31:46;;;;;;;3.70;0.97;;;;;;;3.24;64.66;102354.13;4944513;28;96941;-86
2021/12/20 03:34:12;;;;;;;1.33;0.87;;;;;;;3.24;64.69;102367.72;4941901;28;98665;-86
2021/12/20 03:36:38;;;;;;;0.90;0.83;;;;;;;3.23;64.68;102355.31;4943200;28;99760;-86
2021/12/20 03:39:07;;;;;;;1.30;0.80;;;;;;;3.20;64.64;102372.44;4957894;28;97074;-87
2021/12/20 03:41:33;;;;;;;0.80;0.80;;;;;;;3.18;64.65;102367.41;4941285;28;96911;-86
2021/12/20 03:43:58;;;;;;;1.33;1.00;;;;;;;3.18;64.58;102361.97;4940368;28;99849;-86
2021/12/20 03:46:24;;;;;;;2.00;0.90;;;;;;;3.16;64.39;102361.59;4941952;28;97359;-86
2021/12/20 03:48:49;;;;;;;1.30;1.20;;;;;;;3.13;64.50;102367.81;4942221;28;96864;-86
2021/12/20 03:51:15;;;;;;;1.87;1.10;;;;;;;3.13;64.57;102356.16;4943536;28;96927;-86
2021/12/20 03:53:41;;;;;;;1.20;1.03;;;;;;;3.12;64.53;102370.94;4941406;28;96957;-87
2021/12/20 03:56:06;;;;;;;1.10;1.07;;;;;;;3.11;64.61;102377.53;4943539;28;96820;-87
2021/12/20 03:58:33;;;;;;;4.70;0.87;;;;;;;3.08;64.51;102370.19;4943407;28;97179;-86
2021/12/20 04:01:02;;;;;;;1.40;1.00;;;;;;;3.07;64.55;102376.78;4944710;28;97353;-87
2021/12/20 04:03:30;;;;;;;1.40;1.00;;;;;;;3.04;64.42;102370.97;4942439;28;97738;-86
2021/12/20 04:05:56;;;;;;;6.00;1.10;;;;;;;3.04;64.45;102367.47;4941295;28;101998;-86
2021/12/20 04:08:22;;;;;;;1.30;1.13;;;;;;;3.01;64.62;102374.47;4939635;28;97024;-86
2021/12/20 04:10:48;;;;;;;1.10;0.93;;;;;;;2.97;64.55;102390.03;4946035;28;96947;-86
2021/12/20 04:13:13;;;;;;;1.50;1.13;;;;;;;2.95;64.78;102367.94;4944861;28;98660;-86
2021/12/20 04:15:39;;;;;;;1.03;0.93;;;;;;;2.96;64.45;102390.44;4945155;28;97374;-87
2021/12/20 04:18:05;;;;;;;1.63;1.03;;;;;;;2.92;64.52;102409.50;4944841;28;96800;-86
2021/12/20 04:20:30;;;;;;;2.87;1.00;;;;;;;2.93;64.62;102383.88;4942922;28;97446;-87
2021/12/20 04:22:56;;;;;;;1.37;1.00;;;;;;;2.92;64.39;102406.78;4967476;28;99541;-87
2021/12/20 04:25:21;;;;;;;0.90;0.90;;;;;;;2.92;64.40;102395.13;4946184;28;96601;-86
2021/12/20 04:27:47;;;;;;;1.23;1.03;;;;;;;2.88;64.44;102392.44;4962566;28;96941;-87
2021/12/20 04:30:13;;;;;;;1.87;1.20;;;;;;;2.85;64.62;102385.06;4946179;28;97147;-87
2021/12/20 04:32:42;;;;;;;1.07;0.97;;;;;;;2.78;64.51;102406.84;4945740;28;96849;-87
2021/12/20 04:35:08;;;;;;;0.97;0.90;;;;;;;2.81;64.71;102403.34;4943573;28;97397;-87
2021/12/20 04:37:46;;;;;;;1.23;1.13;;;;;;;2.82;64.73;102393.22;4940731;28;98339;-87
2021/12/20 04:40:19;;;;;;;1.10;0.93;;;;;;;2.79;64.88;102399.47;4940231;28;97364;-86
2021/12/20 04:42:45;;;;;;;1.77;1.37;;;;;;;2.78;64.85;102387.81;4944174;28;99861;-86
2021/12/20 04:45:10;;;;;;;8.87;1.40;;;;;;;2.73;64.80;102385.50;4961444;28;97929;-86
2021/12/20 04:47:36;;;;;;;3.83;1.60;;;;;;;2.73;64.70;102390.19;4968301;28;96994;-87
2021/12/20 04:50:03;;;;;;;3.07;2.00;;;;;;;2.72;64.90;102399.50;4947003;28;97067;-87
2021/12/20 04:52:29;;;;;;;2.03;1.27;;;;;;;2.66;64.79;102366.56;4937150;28;97504;-87
2021/12/20 04:54:54;;;;;;;4.00;1.47;;;;;;;2.69;64.96;102392.91;4940108;28;97271;-87
2021/12/20 04:57:20;;;;;;;1.23;1.13;;;;;;;2.70;64.90;102386.31;4943009;28;97354;-86
2021/12/20 04:59:45;;;;;;;2.30;1.10;;;;;;;2.68;64.84;102451.16;4942406;28;97419;-87
2021/12/20 05:02:10;;;;;;;3.70;1.57;;;;;;;2.68;65.04;102391.38;4942921;28;97159;-87
2021/12/20 05:04:36;;;;;;;1.37;1.27;;;;;;;2.68;64.86;102413.13;4937616;28;97208;-87
2021/12/20 05:07:03;;;;;;;3.23;1.13;;;;;;;2.68;65.09;102394.09;4943850;28;96686;-87
2021/12/20 05:09:35;;;;;;;1.80;1.23;;;;;;;2.70;64.64;102399.91;4941026;28;96810;-87
2021/12/20 05:12:10;;;;;;;6.10;1.67;;;;;;;2.63;65.03;102402.66;4942018;28;99996;-87
2021/12/20 05:14:36;;;;;;;2.20;1.37;;;;;;;2.65;64.98;102394.09;4941656;28;97749;-86
2021/12/20 05:17:01;;;;;;;2.43;1.70;;;;;;;2.66;64.60;102393.72;4942142;28;97150;-86
2021/12/20 05:19:27;;;;;;;1.73;1.63;;;;;;;2.65;64.63;102394.88;4941254;28;96930;-87
2021/12/20 05:21:52;;;;;;;2.30;1.60;;;;;;;2.64;64.84;102393.34;4941079;28;97139;-87
2021/12/20 05:24:17;;;;;;;2.00;1.50;;;;;;;2.61;64.87;102405.00;4941277;28;97697;-87
2021/12/20 05:26:43;;;;;;;1.70;1.60;;;;;;;2.57;64.66;102447.69;4939306;28;96941;-87
2021/12/20 05:29:08;;;;;;;1.90;1.20;;;;;;;2.57;64.70;102415.09;4939554;28;97187;-87
2021/12/20 05:31:34;;;;;;;1.50;1.40;;;;;;;2.55;64.76;102417.44;4935728;28;99645;-87
2021/12/20 05:34:00;;;;;;;2.20;2.00;;;;;;;2.57;64.61;102408.88;4936599;28;99195;-87
2021/12/20 05:36:26;;;;;;;1.27;1.10;;;;;;;2.55;64.87;102436.47;4939290;28;97073;-87
2021/12/20 05:38:51;;;;;;;1.60;1.50;;;;;;;2.57;65.26;102420.53;4936515;28;96889;-87
2021/12/20 05:41:17;;;;;;;2.07;1.50;;;;;;;2.56;65.07;102413.53;4952633;28;96958;-87
2021/12/20 05:43:42;;;;;;;1.43;1.27;;;;;;;2.55;65.10;102411.22;4958347;28;97390;-87
2021/12/20 05:46:08;;;;;;;2.47;1.27;;;;;;;2.58;64.88;102419.34;4939040;28;96740;-87
2021/12/20 05:48:33;;;;;;;3.80;1.40;;;;;;;2.56;64.55;102427.13;4937750;28;96934;-87
2021/12/20 05:50:59;;;;;;;3.77;1.60;;;;;;;2.50;64.60;102419.78;4937764;28;99385;-87
2021/12/20 05:53:25;;;;;;;2.07;1.30;;;;;;;2.53;64.56;102430.66;4938426;28;96823;-88
2021/12/20 05:55:50;;;;;;;4.17;1.67;;;;;;;2.48;64.60;102417.47;4938403;28;97446;-87
2021/12/20 05:58:16;;;;;;;3.20;1.70;;;;;;;2.52;64.53;102428.31;4940260;28;97092;-87
2021/12/20 06:00:41;;;;;;;2.30;1.83;;;;;;;2.52;64.62;102417.44;4937367;28;98845;-88
2021/12/20 06:03:07;;;;;;;3.23;1.83;;;;;;;2.50;64.74;102426.00;4955759;28;98253;-87
2021/12/20 06:05:32;;;;;;;2.67;1.63;;;;;;;2.49;64.50;102434.53;4951712;28;97605;-88
2021/12/20 06:07:58;;;;;;;3.80;1.57;;;;;;;2.52;64.83;102428.31;4941573;28;97310;-87
2021/12/20 06:10:23;;;;;;;2.13;1.63;;;;;;;2.42;64.80;102435.34;4953734;28;97420;-88
2021/12/20 06:12:49;;;;;;;3.80;1.83;;;;;;;2.52;64.74;102434.50;4937723;28;99533;-87
2021/12/20 06:15:15;;;;;;;3.53;1.60;;;;;;;2.51;64.73;102457.41;4938125;28;96945;-87
2021/12/20 06:17:41;;;;;;;4.40;1.60;;;;;;;2.45;64.56;102450.06;4939625;28;98442;-87
2021/12/20 06:20:09;;;;;;;4.00;1.70;;;;;;;2.40;64.64;102461.34;4936524;28;97275;-87
2021/12/20 06:22:35;;;;;;;6.27;1.73;;;;;;;2.42;64.79;102445.41;4937774;28;97453;-87
2021/12/20 06:25:00;;;;;;;3.47;2.03;;;;;;;2.40;64.73;102445.81;4937298;28;97064;-87
2021/12/20 06:27:26;;;;;;;9.80;2.53;;;;;;;2.36;64.87;102439.59;4940041;28;97874;-87
2021/12/20 06:29:51;;;;;;;12.90;2.00;;;;;;;2.39;64.73;102441.53;4940945;28;97649;-87
2021/12/20 06:32:17;;;;;;;4.73;1.93;;;;;;;2.39;64.66;102446.97;4936204;28;97602;-88
2021/12/20 06:34:42;;;;;;;5.47;2.20;;;;;;;2.38;64.39;102453.56;4940978;28;96938;-88
2021/12/20 06:37:08;;;;;;;6.30;2.00;;;;;;;2.36;64.82;102439.59;4938780;28;97042;-88
2021/12/20 06:39:33;;;;;;;8.33;1.97;;;;;;;2.35;64.57;102461.72;4938275;28;97402;-87
2021/12/20 06:41:59;;;;;;;3.00;1.77;;;;;;;2.34;64.66;102466.38;4940484;28;97660;-87
2021/12/20 06:44:25;;;;;;;5.70;2.40;;;;;;;2.34;64.53;102450.06;4941616;28;96996;-88
2021/12/20 06:46:50;;;;;;;3.83;1.50;;;;;;;2.35;64.72;102465.22;4946091;28;96985;-88
2021/12/20 06:49:16;;;;;;;4.30;1.97;;;;;;;2.34;64.47;102452.78;4943213;28;98031;-88
2021/12/20 06:51:43;;;;;;;4.83;2.50;;;;;;;2.34;64.73;102460.94;4953184;28;99732;-88
2021/12/20 06:54:16;;;;;;;5.73;2.90;;;;;;;2.28;64.40;102448.94;4944114;28;97257;-88
2021/12/20 06:56:43;;;;;;;3.90;1.87;;;;;;;2.29;64.65;102462.09;4939729;28;97048;-88
2021/12/20 06:59:09;;;;;;;5.50;1.60;;;;;;;2.29;64.68;102462.09;4942769;28;98015;-87
2021/12/20 07:01:35;;;;;;;8.80;2.00;;;;;;;2.28;64.63;102467.94;4959994;28;98035;-88
2021/12/20 07:04:01;;;;;;;4.97;1.80;;;;;;;2.27;64.54;102466.41;4954182;28;97419;-88
2021/12/20 07:06:30;;;;;;;3.20;1.53;;;;;;;2.28;64.73;102462.50;4942636;28;96851;-87
2021/12/20 07:08:56;;;;;;;4.57;1.70;;;;;;;2.26;64.62;102467.56;4935388;28;96870;-88
2021/12/20 07:11:22;;;;;;;3.67;1.90;;;;;;;2.25;64.51;102472.22;4940699;28;98632;-87
2021/12/20 07:13:47;;;;;;;5.23;2.23;;;;;;;2.23;64.73;102488.13;4939467;28;96868;-87
2021/12/20 07:16:13;;;;;;;5.17;1.80;;;;;;;2.23;64.76;102481.91;4940917;28;96846;-87
2021/12/20 07:18:39;;;;;;;6.53;2.80;;;;;;;2.21;64.68;102495.09;4938138;28;99861;-87
2021/12/20 07:21:04;;;;;;;8.63;2.43;;;;;;;2.21;64.63;102478.81;4941484;28;97643;-87
2021/12/20 07:23:30;;;;;;;6.17;2.00;;;;;;;2.20;64.49;102480.00;4955085;28;96750;-88
2021/12/20 07:25:56;;;;;;;3.83;2.13;;;;;;;2.16;64.48;102479.22;4944392;28;96873;-88
2021/12/20 07:28:21;;;;;;;3.80;2.20;;;;;;;2.13;64.69;102488.13;4934818;28;97933;-88
2021/12/20 07:30:48;;;;;;;8.93;2.50;;;;;;;2.09;64.73;102487.38;4935782;28;97012;-88
2021/12/20 07:33:15;;;;;;;8.60;1.93;;;;;;;2.07;64.75;102505.97;4937162;28;96991;-88
2021/12/20 07:35:44;;;;;;;7.90;2.80;;;;;;;2.07;64.80;102514.13;4940344;28;96992;-88
2021/12/20 07:38:14;;;;;;;6.10;2.17;;;;;;;2.07;64.84;102497.84;4941644;28;97651;-87
2021/12/20 07:40:45;;;;;;;10.30;2.40;;;;;;;2.03;64.47;102500.53;4940700;28;101593;-88
2021/12/20 07:43:11;;;;;;;6.47;2.70;;;;;;;2.06;64.83;102499.00;4939578;28;98838;-88
2021/12/20 07:45:36;;;;;;;8.20;2.47;;;;;;;2.06;64.69;102513.34;4956976;28;97476;-88
2021/12/20 07:48:02;;;;;;;4.30;2.47;;;;;;;2.05;64.59;102514.50;4941361;28;100529;-87
2021/12/20 07:50:28;;;;;;;8.00;2.90;;;;;;;2.08;64.84;102508.28;4939257;28;96976;-87
2021/12/20 07:52:54;;;;;;;5.77;2.70;;;;;;;2.09;64.73;102503.66;4933070;28;97381;-88
2021/12/20 07:55:19;;;;;;;7.13;2.80;;;;;;;2.10;64.63;102526.91;4938194;28;97227;-87
2021/12/20 07:57:45;;;;;;;7.77;2.73;;;;;;;2.10;64.64;102516.81;4933768;28;97529;-88
2021/12/20 08:00:12;;;;;;;3.87;2.23;;;;;;;2.10;64.26;102518.75;4938445;28;96903;-87
2021/12/20 08:02:37;;;;;;;5.47;2.00;;;;;;;2.08;64.61;102502.88;4943398;28;96723;-87
2021/12/20 08:05:03;;;;;;;6.97;2.30;;;;;;;2.08;64.65;102521.09;4975373;28;97315;-87
2021/12/20 08:07:29;;;;;;;4.10;2.63;;;;;;;2.09;64.54;102503.66;4949063;28;96760;-87
2021/12/20 08:09:54;;;;;;;7.90;2.20;;;;;;;2.08;64.42;102508.28;4941163;28;97255;-87
2021/12/20 08:12:20;;;;;;;5.00;2.20;;;;;;;2.07;64.85;102544.00;4941424;28;96979;-87
2021/12/20 08:14:45;;;;;;;6.83;2.20;;;;;;;2.10;64.70;102505.97;4941677;28;97406;-88
2021/12/20 08:17:11;;;;;;;5.50;2.90;;;;;;;2.12;64.81;102502.84;4941630;28;96993;-88
2021/12/20 08:19:36;;;;;;;6.90;2.17;;;;;;;2.13;64.72;102515.28;4942878;28;97852;-87
2021/12/20 08:22:02;;;;;;;5.37;2.00;;;;;;;2.15;64.86;102505.59;4937670;28;97165;-87
2021/12/20 08:24:27;;;;;;;7.47;2.10;;;;;;;2.14;64.85;102506.75;4952137;28;96963;-88
2021/12/20 08:26:53;;;;;;;7.00;2.30;;;;;;;2.12;64.70;102503.63;4938887;28;97474;-88
2021/12/20 08:29:18;;;;;;;4.27;2.23;;;;;;;2.09;64.53;102498.22;4937769;28;97603;-87
2021/12/20 08:31:43;;;;;;;2.70;2.07;;;;;;;2.00;64.61;102539.34;4933044;28;97054;-87
2021/12/20 08:34:09;;;;;;;13.00;2.70;;;;;;;2.07;64.77;102525.75;4936926;28;97305;-88
2021/12/20 08:36:34;;;;;;;6.90;2.43;;;;;;;2.10;64.98;102535.06;4936893;28;96853;-87
2021/12/20 08:39:00;;;;;;;6.17;2.30;;;;;;;2.16;64.92;102514.50;4943621;28;98123;-86
2021/12/20 08:41:25;;;;;;;2.60;1.80;;;;;;;2.14;64.86;102527.69;4939415;28;96911;-87
2021/12/20 08:43:51;;;;;;;8.90;2.00;;;;;;;2.14;64.65;102501.31;4940989;28;97317;-87
2021/12/20 08:46:18;;;;;;;5.57;2.27;;;;;;;2.19;64.92;102514.50;4938310;28;98605;-87
2021/12/20 08:48:44;;;;;;;8.70;2.43;;;;;;;2.23;64.85;102533.50;4938601;28;97009;-87
2021/12/20 08:51:10;;;;;;;3.13;2.13;;;;;;;2.26;64.97;102527.28;4942828;28;97277;-87
2021/12/20 08:53:36;;;;;;;2.87;1.67;;;;;;;2.29;64.88;102537.41;4952444;28;96749;-87
2021/12/20 08:56:04;;;;;;;3.70;2.73;;;;;;;2.33;64.87;102526.53;4937229;28;97257;-87
2021/12/20 08:58:29;;;;;;;6.07;2.47;;;;;;;2.35;64.99;102533.13;4934561;28;97727;-86
2021/12/20 09:00:55;;;;;;;6.27;2.50;;;;;;;2.40;64.82;102534.66;4939441;28;96737;-87
2021/12/20 09:03:21;;;;;;;6.70;2.77;;;;;;;2.45;64.82;102539.69;4942282;28;97441;-87
2021/12/20 09:05:48;;;;;;;4.20;2.17;;;;;;;2.48;64.78;102544.34;4940483;28;97209;-87
2021/12/20 09:08:16;;;;;;;5.20;2.77;;;;;;;2.52;64.81;102539.69;4939042;28;97070;-87
2021/12/20 09:10:41;;;;;;;7.90;2.60;;;;;;;2.55;64.77;102541.63;4941517;28;96730;-87
2021/12/20 09:13:07;;;;;;;6.10;2.23;;;;;;;2.58;65.13;102532.72;4940464;28;98712;-87
2021/12/20 09:15:33;;;;;;;7.27;3.00;;;;;;;2.63;64.86;102537.72;4955083;28;96829;-87
2021/12/20 09:17:59;;;;;;;5.50;2.70;;;;;;;2.65;65.04;102563.34;4938247;28;97847;-87
2021/12/20 09:20:27;;;;;;;5.87;3.03;;;;;;;2.69;64.67;102547.81;4938602;28;96999;-87
2021/12/20 09:22:57;;;;;;;8.53;2.87;;;;;;;2.71;64.96;102545.47;4935599;28;97111;-87
2021/12/20 09:25:25;;;;;;;5.03;2.90;;;;;;;2.77;65.06;102541.19;4952143;28;98511;-86
2021/12/20 09:27:52;;;;;;;8.27;3.80;;;;;;;2.76;64.94;102550.50;4932982;28;98991;-86
2021/12/20 09:30:19;;;;;;;5.30;3.37;;;;;;;2.79;65.07;102541.59;4939908;28;97696;-87
2021/12/20 09:32:44;;;;;;;5.43;3.30;;;;;;;2.83;64.88;102542.34;4941705;28;97183;-86
2021/12/20 09:35:10;;;;;;;11.50;3.50;;;;;;;2.89;65.04;102561.72;4941654;28;99082;-87
2021/12/20 09:37:38;;;;;;;5.77;3.57;;;;;;;2.92;64.89;102553.59;4937965;28;96975;-87
2021/12/20 09:40:08;;;;;;;11.60;3.13;;;;;;;2.92;65.20;102550.88;4937671;28;97165;-86
2021/12/20 09:42:34;;;;;;;9.77;3.60;;;;;;;2.95;65.30;102555.50;4938909;28;97390;-87
2021/12/20 09:45:01;;;;;;;6.80;3.33;;;;;;;3.02;65.20;102547.31;4941333;28;97126;-85
2021/12/20 09:47:32;;;;;;;7.93;2.93;;;;;;;3.10;65.25;102550.03;4939764;28;101659;-86
2021/12/20 09:50:00;;;;;;;5.03;3.13;;;;;;;3.14;65.21;102551.56;4937028;28;97572;-86
2021/12/20 09:52:26;;;;;;;6.13;3.60;;;;;;;3.16;65.02;102564.75;4939503;28;96928;-86
2021/12/20 09:54:51;;;;;;;5.47;3.13;;;;;;;3.15;65.26;102552.31;4934306;28;96893;-86
2021/12/20 09:57:20;;;;;;;7.17;3.20;;;;;;;3.07;65.14;102570.63;4943091;28;97348;-86
2021/12/20 09:59:45;;;;;;;12.77;3.50;;;;;;;3.09;65.69;102572.94;4950338;28;96843;-86
2021/12/20 10:02:11;;;;;;;7.50;2.70;;;;;;;3.14;65.62;102569.81;4940180;28;96810;-86
2021/12/20 10:04:37;;;;;;;6.57;3.33;;;;;;;3.21;65.54;102610.59;4933926;28;98064;-86
2021/12/20 10:07:03;;;;;;;8.40;2.97;;;;;;;3.27;65.49;102577.16;4937616;28;98213;-86
2021/12/20 10:09:34;;;;;;;9.40;2.80;;;;;;;3.32;65.36;102568.56;4941144;28;97003;-86
2021/12/20 10:12:29;;;;;;;5.30;3.00;;;;;;;3.39;65.47;102567.75;4935788;28;97333;-87
2021/12/20 10:15:00;;;;;;;8.83;2.93;;;;;;;3.43;65.24;102577.47;4926965;28;104324;-86
2021/12/20 10:17:31;;;;;;;7.37;3.63;;;;;;;3.48;65.35;102571.63;4955572;28;103883;-86
2021/12/20 10:20:13;;;;;;;12.90;3.20;;;;;;;3.54;65.58;102582.84;4939537;28;96977;-86
2021/12/20 10:22:38;;;;;;;5.20;2.33;;;;;;;3.58;65.54;102567.28;4943340;28;97673;-86
2021/12/20 10:25:20;;;;;;;5.40;2.80;;;;;;;3.62;65.67;102568.06;4955317;28;98826;-86
2021/12/20 10:27:45;;;;;;;6.40;3.00;;;;;;;3.66;65.53;102572.31;4940113;28;100715;-87
2021/12/20 10:30:25;;;;;;;10.17;2.70;;;;;;;3.68;65.64;102571.91;4942145;28;97419;-86
2021/12/20 10:32:51;;;;;;;5.53;2.80;;;;;;;3.69;65.58;102582.38;4940555;28;96849;-86
2021/12/20 10:35:25;;;;;;;8.67;2.73;;;;;;;3.74;65.67;102571.06;4945333;28;97995;-86
2021/12/20 10:37:52;;;;;;;5.20;2.90;;;;;;;3.76;65.57;102567.94;4937162;28;97492;-86
2021/12/20 10:40:18;;;;;;;6.97;2.50;;;;;;;3.82;65.78;102576.50;4961031;28;96830;-86
2021/12/20 10:42:43;;;;;;;6.33;2.50;;;;;;;3.86;65.77;102558.19;4945173;28;97419;-86
2021/12/20 10:45:13;;;;;;;4.00;2.57;;;;;;;3.87;65.87;102565.94;4940830;28;97211;-86
2021/12/20 10:47:39;;;;;;;7.90;2.80;;;;;;;3.87;65.79;102573.34;4945189;28;98549;-86
2021/12/20 10:50:31;;;;;;;10.63;3.23;;;;;;;3.98;65.88;102565.84;4940913;28;96969;-86
2021/12/20 10:53:16;;;;;;;10.13;2.60;;;;;;;4.00;66.05;102585.31;4941916;28;96744;-87
2021/12/20 10:55:52;;;;;;;7.67;2.63;;;;;;;4.04;65.89;102564.28;4939897;28;102930;-86
2021/12/20 10:58:31;;;;;;;5.73;2.97;;;;;;;4.06;66.00;102561.94;4954841;28;98709;-86
2021/12/20 11:01:48;;;;;;;4.80;2.73;;;;;;;4.09;65.88;102559.16;4940117;28;96769;-86
2021/12/20 11:04:22;;;;;;;7.70;3.10;;;;;;;4.03;65.77;102560.78;4939995;28;97458;-86
2021/12/20 11:09:39;;;;;;;10.37;3.20;;;;;;;4.11;65.94;102559.53;4946196;28;96874;-86
2021/12/20 11:12:13;;;;;;;6.43;3.30;;;;;;;4.19;66.16;102561.06;4939588;28;96939;-86
2021/12/20 11:14:41;;;;;;;4.90;2.53;;;;;;;4.24;65.89;102576.16;4940317;28;96621;-86
2021/12/20 11:17:12;;;;;;;8.37;2.90;;;;;;;4.25;65.96;102570.34;4943506;28;98394;-86
2021/12/20 11:19:41;;;;;;;6.10;2.03;;;;;;;4.31;65.70;102566.00;4941335;28;97183;-86
2021/12/20 11:22:14;;;;;;;3.73;2.10;;;;;;;4.35;66.05;102555.84;4956939;28;97265;-86
2021/12/20 11:24:46;;;;;;;6.93;2.23;;;;;;;4.39;66.16;102564.00;4955590;28;96985;-87
2021/12/20 11:27:18;;;;;;;3.77;2.60;;;;;;;4.44;66.08;102560.81;4944886;28;96964;-87
2021/12/20 11:29:45;;;;;;;6.10;2.40;;;;;;;4.50;65.93;102575.56;4954612;28;99221;-86
2021/12/20 11:32:10;;;;;;;6.90;2.37;;;;;;;4.52;65.87;102579.44;4955325;28;97434;-87
2021/12/20 11:34:38;;;;;;;5.70;2.10;;;;;;;4.53;65.97;102547.50;4944692;28;96848;-88
2021/12/20 11:37:04;;;;;;;7.70;2.53;;;;;;;4.57;66.02;102554.47;4941784;28;101203;-88
2021/12/20 11:39:30;;;;;;;6.80;2.43;;;;;;;4.62;66.03;102558.72;4938664;28;98080;-87
2021/12/20 11:41:55;;;;;;;4.00;2.00;;;;;;;4.65;66.18;102548.97;4944763;28;96853;-87
2021/12/20 11:44:26;;;;;;;2.77;2.47;;;;;;;4.76;66.02;102539.47;4937909;28;96921;-87